Latest Weather Observations for Broome Port

IDW60801

Issued at 11:02 pm WST Friday 6 May 2016 (issued every 30 minutes, with the page automatically refreshed every 10 minutes)

About weather observations | Map of weather stations | Latest weather observations for WA | Other Formats
Station Details ID: 003102 Name: BROOME NTC AWS Lat: -18.00 Lon: 122.22 Height: 0.0 m
Data from the previous 72 hours. | See also: Recent months for locations in Western Australia
Date/Time
WST
Temp
°C
App
Temp
°C
Dew
Point
Rel
Hum
%
Delta-T
°C
Wind Press
QNH
hPa
Press
MSL
hPa
Rain
since 9 am
mm
Dir
 
Spd
km/h
Gust
km/h
Spd
kts
Gust
kts
06/11:00pm 24.2 - - - - NE 22 28 12 15 1008.1 1008.0 -
06/10:30pm 23.9 - - - - NNE 9 13 5 7 1007.7 1007.6 -
06/10:00pm 23.6 - - - - NE 22 30 12 16 1008.0 1007.9 -
06/09:30pm 25.0 - - - - E 26 30 14 16 1008.0 1007.9 -
06/09:00pm 25.2 - - - - NE 9 11 5 6 1008.1 1008.0 -
06/08:30pm 25.6 - - - - NNE 11 15 6 8 1007.7 1007.6 -
06/08:00pm 26.3 - - - - ENE 11 17 6 9 1008.0 1007.9 -
06/07:30pm 26.6 - - - - SE 6 7 3 4 1006.6 1006.5 -
06/07:00pm 26.6 - - - - ENE 6 7 3 4 1006.9 1006.8 -
06/06:30pm 27.3 - - - - NNE 9 9 5 5 1006.8 1006.7 -
06/06:00pm 27.7 - - - - NNW 4 6 2 3 1006.7 1006.6 -
06/05:30pm 28.0 - - - - N 7 9 4 5 1005.9 1005.8 -
06/05:00pm 28.5 - - - - ENE 4 7 2 4 1005.3 1005.2 -
06/04:30pm 28.6 - - - - NE 6 7 3 4 1004.9 1004.8 -
06/04:00pm 28.7 - - - - NE 7 9 4 5 1004.8 1004.7 -
06/03:30pm 28.8 - - - - NE 11 17 6 9 1004.9 1004.8 -
06/03:00pm 28.8 - - - - NE 15 19 8 10 1004.8 1004.7 -
06/02:30pm 28.5 - - - - ENE 17 20 9 11 1004.8 1004.7 -
06/02:00pm 27.9 - - - - NE 20 24 11 13 1005.2 1005.1 -
06/01:30pm 27.3 - - - - NE 24 32 13 17 1005.8 1005.7 -
06/01:00pm 26.8 - - - - NE 19 24 10 13 1005.6 1005.5 -
06/12:30pm 25.5 - - - - ENE 20 26 11 14 1006.1 1006.0 -
06/12:00pm 25.4 - - - - ENE 26 32 14 17 1007.4 1007.3 -
06/11:30am 24.9 - - - - NE 24 28 13 15 1008.8 1008.7 -
06/11:00am 25.2 - - - - NE 20 26 11 14 1009.6 1009.5 -
06/10:30am 25.0 - - - - NE 28 35 15 19 1010.1 1010.0 -
06/10:00am 26.1 - - - - NE 22 30 12 16 1010.3 1010.2 -
06/09:30am 26.1 - - - - ENE 20 26 11 14 1010.5 1010.4 -
06/09:00am 26.3 - - - - ENE 24 30 13 16 1010.2 1010.1 -
06/08:30am 26.4 - - - - ENE 28 33 15 18 1009.6 1009.5 -
06/08:00am 26.2 - - - - ENE 26 30 14 16 1009.2 1009.1 -
06/07:30am 26.3 - - - - ENE 26 33 14 18 1009.0 1008.9 -
06/07:00am 26.7 - - - - ENE 28 35 15 19 1009.4 1009.3 -
06/06:30am 27.0 - - - - E 30 35 16 19 1008.3 1008.2 -
06/06:00am 26.9 - - - - E 17 20 9 11 1008.4 1008.3 -
06/05:30am 27.1 - - - - E 9 13 5 7 1008.5 1008.4 -
06/05:00am 27.1 - - - - ENE 4 6 2 3 1008.5 1008.4 -
06/04:30am 27.1 - - - - NE 4 6 2 3 1008.4 1008.3 -
06/04:00am 27.0 - - - - NE 7 9 4 5 1008.5 1008.4 -
06/03:30am 26.9 - - - - NE 7 9 4 5 1008.5 1008.4 -
06/03:00am 27.3 - - - - NE 7 11 4 6 1008.7 1008.6 -
06/02:30am 27.5 - - - - E 9 11 5 6 1008.6 1008.5 -
06/02:00am 27.6 - - - - E 13 15 7 8 1008.4 1008.3 -
06/01:30am 27.5 - - - - E 9 11 5 6 1008.7 1008.6 -
06/01:00am 27.8 - - - - E 7 9 4 5 1009.1 1009.0 -
06/12:30am 27.8 - - - - ESE 7 9 4 5 1009.5 1009.4 -
06/12:00am 28.2 - - - - ESE 7 9 4 5 1009.7 1009.6 -
 
Date/Time
WST
Temp
°C
App
Temp
°C
Dew
Point
Rel
Hum
%
Delta-T
°C
Wind Press
QNH
hPa
Press
MSL
hPa
Rain
since 9 am
mm
Dir
 
Spd
km/h
Gust
km/h
Spd
kts
Gust
kts
05/11:30pm 28.1 - - - - ESE 9 13 5 7 1009.9 1009.8 -
05/11:00pm 28.4 - - - - SE 9 9 5 5 1010.0 1009.9 -
05/10:30pm 28.7 - - - - ESE 6 7 3 4 1010.4 1010.3 -
05/10:00pm 29.0 - - - - ESE 6 7 3 4 1010.5 1010.4 -
05/09:30pm 28.8 - - - - S 6 7 3 4 1010.5 1010.4 -
05/09:00pm 28.6 - - - - W 2 4 1 2 1010.5 1010.4 -
05/08:30pm 28.5 - - - - NW 7 9 4 5 1010.3 1010.2 -
05/08:00pm 28.4 - - - - E 2 6 1 3 1009.9 1009.8 -
05/07:30pm 28.5 - - - - W 2 4 1 2 1009.5 1009.4 -
05/07:00pm 28.6 - - - - WSW 4 6 2 3 1009.3 1009.2 -
05/06:30pm 27.7 - - - - W 2 6 1 3 1009.0 1008.9 -
05/06:00pm 27.1 - - - - NNW 6 9 3 5 1009.0 1008.9 -
05/05:30pm 27.0 - - - - N 13 17 7 9 1009.0 1008.9 -
05/05:00pm 27.0 - - - - N 20 28 11 15 1008.9 1008.8 -
05/04:30pm 27.6 - - - - NNE 11 24 6 13 1009.0 1008.9 -
05/04:00pm 27.2 - - - - NNE 7 15 4 8 1008.7 1008.6 -
05/03:30pm 27.6 - - - - NE 35 46 19 25 1008.2 1008.1 -
05/03:22pm 27.9 - - - - N 15 46 8 25 1008.2 1008.1 -
05/03:00pm 31.2 - - - - SW 7 13 4 7 1007.6 1007.5 -
05/02:30pm 32.9 - - - - NNE 2 4 1 2 1007.9 1007.8 -
05/02:00pm 32.2 - - - - NE 2 6 1 3 1007.6 1007.5 -
05/01:30pm 31.8 - - - - S 2 6 1 3 1008.2 1008.1 -
05/01:00pm 30.5 - - - - SW 6 13 3 7 1008.6 1008.5 -
05/12:30pm 29.5 - - - - SW 4 9 2 5 1009.1 1009.0 -
05/12:00pm 29.5 - - - - SW 4 7 2 4 1009.7 1009.6 -
05/11:30am 29.1 - - - - SW 4 7 2 4 1010.4 1010.3 -
05/11:00am 28.7 - - - - SW 6 9 3 5 1011.1 1011.0 -
05/10:30am 28.5 - - - - CALM 0 4 0 2 1011.6 1011.5 -
05/10:00am 27.7 - - - - W 2 6 1 3 1012.1 1012.0 -
05/09:30am 26.4 - - - - NNW 2 4 1 2 1012.3 1012.2 -
05/09:08am 25.6 - - - - NNW 17 43 9 23 1012.2 1012.1 -
05/09:00am 25.0 - - - - N 48 70 26 38 1012.3 1012.2 -
05/08:57am 24.6 - - - - N 57 80 31 43 1012.3 1012.2 -
05/08:55am 24.6 - - - - N 59 80 32 43 1012.0 1011.9 -
05/08:49am 23.0 - - - - NNE 41 80 22 43 1011.5 1011.4 -
05/08:47am 25.0 - - - - NE 32 70 17 38 1011.9 1011.8 -
05/08:44am 26.7 - - - - ENE 22 44 12 24 1012.2 1012.1 -
05/08:30am 28.4 - - - - ESE 7 9 4 5 1011.7 1011.6 -
05/08:00am 27.8 - - - - E 13 17 7 9 1011.3 1011.2 -
05/07:30am 26.8 - - - - ESE 15 17 8 9 1011.2 1011.1 -
05/07:00am 26.7 - - - - E 11 13 6 7 1010.9 1010.8 -
05/06:30am 26.7 - - - - ESE 11 13 6 7 1010.4 1010.3 -
05/06:00am 27.2 - - - - E 11 15 6 8 1010.3 1010.2 -
05/05:30am 27.9 - - - - E 2 4 1 2 1009.9 1009.8 -
05/05:00am 27.9 - - - - ENE 2 4 1 2 1009.7 1009.6 -
05/04:30am 28.1 - - - - N 2 4 1 2 1009.8 1009.7 -
05/04:00am 28.1 - - - - N 2 4 1 2 1009.7 1009.6 -
05/03:30am 28.2 - - - - NNW 4 6 2 3 1009.5 1009.4 -
05/03:00am 28.4 - - - - N 7 9 4 5 1009.5 1009.4 -
05/02:30am 28.6 - - - - NNW 11 13 6 7 1009.7 1009.6 -
05/02:00am 27.5 - - - - N 7 9 4 5 1010.1 1010.0 -
05/01:30am 27.8 - - - - NNE 7 9 4 5 1010.0 1009.9 -
05/01:00am 28.0 - - - - NNE 6 7 3 4 1010.0 1009.9 -
05/12:30am 28.8 - - - - N 6 6 3 3 1010.0 1009.9 -
05/12:00am 29.0 - - - - NNW 7 9 4 5 1010.1 1010.0 -
 
Date/Time
WST
Temp
°C
App
Temp
°C
Dew
Point
Rel
Hum
%
Delta-T
°C
Wind Press
QNH
hPa
Press
MSL
hPa
Rain
since 9 am
mm
Dir
 
Spd
km/h
Gust
km/h
Spd
kts
Gust
kts
04/11:30pm 29.1 - - - - NW 11 13 6 7 1010.5 1010.4 -
04/11:00pm 29.2 - - - - NW 11 13 6 7 1010.7 1010.6 -
04/10:30pm 29.2 - - - - NW 11 13 6 7 1010.7 1010.6 -
04/10:00pm 29.2 - - - - NW 11 15 6 8 1010.7 1010.6 -
04/09:30pm 29.2 - - - - NNW 11 13 6 7 1010.6 1010.5 -
04/09:00pm 29.3 - - - - NW 13 15 7 8 1010.6 1010.5 -
04/08:30pm 29.4 - - - - NW 13 17 7 9 1010.7 1010.6 -
04/08:00pm 29.4 - - - - NNW 13 17 7 9 1010.6 1010.5 -
04/07:30pm 29.5 - - - - NNW 15 20 8 11 1010.1 1010.0 -
04/07:00pm 29.6 - - - - NNW 17 20 9 11 1009.7 1009.6 -
04/06:30pm 29.5 - - - - N 17 20 9 11 1009.5 1009.4 -
04/06:00pm 29.4 - - - - NNW 15 19 8 10 1009.2 1009.1 -
04/05:30pm 29.5 - - - - NW 19 22 10 12 1008.9 1008.8 -
04/05:00pm 29.7 - - - - NW 19 22 10 12 1008.4 1008.3 -
04/04:30pm 30.0 - - - - NW 22 26 12 14 1008.0 1007.9 -
04/04:00pm 29.7 - - - - NW 24 28 13 15 1007.6 1007.5 -
04/03:30pm 29.7 - - - - WNW 24 30 13 16 1007.5 1007.4 -
04/03:00pm 29.7 - - - - NW 24 28 13 15 1007.8 1007.7 -
04/02:30pm 29.7 - - - - NW 20 26 11 14 1008.0 1007.9 -
04/02:00pm 29.6 - - - - NW 22 28 12 15 1008.0 1007.9 -
04/01:30pm 29.7 - - - - NW 24 30 13 16 1008.0 1007.9 -
04/01:00pm 29.6 - - - - NW 26 32 14 17 1008.3 1008.2 -
04/12:30pm 29.9 - - - - NW 26 32 14 17 1008.6 1008.5 -
04/12:00pm 29.9 - - - - NW 26 32 14 17 1009.0 1008.9 -
04/11:30am 30.1 - - - - NW 26 32 14 17 1009.3 1009.2 -
04/11:00am 30.4 - - - - NNW 22 24 12 13 1009.7 1009.6 -
04/10:30am 30.8 - - - - NNW 7 20 4 11 1010.1 1010.0 -
04/10:00am 29.0 - - - - ESE 4 6 2 3 1010.4 1010.3 -
04/09:30am 28.9 - - - - SE 4 4 2 2 1010.7 1010.6 -
04/09:00am 28.5 - - - - ESE 6 7 3 4 1010.7 1010.6 -
04/08:30am 28.3 - - - - ESE 9 11 5 6 1010.9 1010.8 -
04/08:00am 28.5 - - - - ESE 11 13 6 7 1010.8 1010.7 -
04/07:30am 28.5 - - - - SSE 9 13 5 7 1010.4 1010.3 -
04/07:00am 28.5 - - - - SSW 11 15 6 8 1010.2 1010.1 -
04/06:30am 28.6 - - - - SSW 15 19 8 10 1010.0 1009.9 -
04/06:00am 28.9 - - - - SW 20 24 11 13 1009.5 1009.4 -
04/05:30am 28.8 - - - - SW 24 28 13 15 1009.1 1009.0 -
04/05:00am 28.5 - - - - WSW 20 24 11 13 1008.8 1008.7 -
04/04:30am 28.4 - - - - SW 20 24 11 13 1008.8 1008.7 -
04/04:00am 28.2 - - - - SW 19 22 10 12 1008.9 1008.8 -
04/03:30am 27.6 - - - - SW 20 24 11 13 1008.8 1008.7 -
04/03:00am 27.9 - - - - S 17 22 9 12 1009.0 1008.9 -
04/02:30am 29.3 - - - - WSW 15 17 8 9 1008.8 1008.7 -
04/02:00am 29.3 - - - - WSW 17 19 9 10 1009.0 1008.9 -
04/01:30am 29.4 - - - - W 13 15 7 8 1009.0 1008.9 -
04/01:00am 29.4 - - - - W 13 17 7 9 1009.0 1008.9 -
04/12:30am 29.5 - - - - W 13 17 7 9 1009.3 1009.2 -
04/12:00am 29.6 - - - - WNW 11 15 6 8 1009.5 1009.4 -
 
Date/Time
WST
Temp
°C
App
Temp
°C
Dew
Point
Rel
Hum
%
Delta-T
°C
Wind Press
QNH
hPa
Press
MSL
hPa
Rain
since 9 am
mm
Dir
 
Spd
km/h
Gust
km/h
Spd
kts
Gust
kts
03/11:30pm 29.7 - - - - WNW 11 15 6 8 1009.6 1009.5 -

Other Formats:

Comma delimited format used in spreadsheet applications
http://www.bom.gov.au/fwo/IDW60801/IDW60801.95202.axf

JavaScript Object Notation format (JSON) in row-major order
http://www.bom.gov.au/fwo/IDW60801/IDW60801.95202.json